createdAt,value
2023-04-10T00:02:10.846Z,21.40
2023-04-10T00:04:43.105Z,19.00
2023-04-10T00:07:54.913Z,21.20
2023-04-10T00:16:13.253Z,20.30
2023-04-10T00:17:13.906Z,21.30
2023-04-10T00:17:55.602Z,22.50
2023-04-10T00:20:32.917Z,20.70
2023-04-10T00:23:19.055Z,21.80
2023-04-10T00:26:04.333Z,20.90
2023-04-10T00:28:51.750Z,20.90
2023-04-10T00:31:54.312Z,20.50
2023-04-10T00:34:26.247Z,20.60
2023-04-10T00:37:14.148Z,21.60
2023-04-10T00:40:04.019Z,21.60
2023-04-10T00:42:41.974Z,21.00
2023-04-10T00:45:12.645Z,22.30
2023-04-10T00:47:46.917Z,22.20
2023-04-10T00:50:19.559Z,23.30
2023-04-10T00:52:51.603Z,21.30
2023-04-10T00:55:21.195Z,21.50
2023-04-10T00:57:50.828Z,21.60
2023-04-10T01:00:20.543Z,19.70
2023-04-10T01:03:11.354Z,24.00
2023-04-10T01:06:13.279Z,22.20
2023-04-10T01:18:57.589Z,22.40
2023-04-10T01:19:55.600Z,22.40
2023-04-10T01:25:28.774Z,21.10
2023-04-10T01:28:20.854Z,21.30
2023-04-10T01:30:54.006Z,21.70
2023-04-10T01:33:30.781Z,21.40
2023-04-10T01:36:03.229Z,21.00
2023-04-10T01:38:33.311Z,21.50
2023-04-10T01:41:04.133Z,20.70
2023-04-10T01:43:34.330Z,20.50
2023-04-10T01:46:04.897Z,21.70
2023-04-10T01:48:34.523Z,22.40
2023-04-10T01:51:07.274Z,21.40
2023-04-10T01:53:37.571Z,20.20
2023-04-10T01:56:10.566Z,20.40
2023-04-10T01:58:39.972Z,21.40
2023-04-10T02:01:16.407Z,21.30
2023-04-10T02:03:52.114Z,20.70
2023-04-10T02:06:34.902Z,23.70
2023-04-10T02:09:12.631Z,20.80
2023-04-10T02:11:47.581Z,22.80
2023-04-10T02:14:21.736Z,20.90
2023-04-10T02:16:54.111Z,21.00
2023-04-10T02:19:25.208Z,21.20
2023-04-10T02:21:55.081Z,21.50
2023-04-10T02:24:24.707Z,19.70
2023-04-10T02:26:54.419Z,21.60
2023-04-10T02:29:23.689Z,21.50
2023-04-10T02:31:52.977Z,23.30
2023-04-10T02:34:36.761Z,21.60
2023-04-10T02:37:06.145Z,22.10
2023-04-10T02:39:36.592Z,20.60
2023-04-10T02:42:09.935Z,23.40
2023-04-10T02:44:39.403Z,21.60
2023-04-10T02:47:23.418Z,23.00
2023-04-10T02:49:52.744Z,21.40
2023-04-10T02:52:21.908Z,22.80
2023-04-10T02:54:51.470Z,20.90
2023-04-10T02:57:35.710Z,22.50
2023-04-10T03:00:07.125Z,25.30
2023-04-10T03:02:46.237Z,23.30
2023-04-10T03:05:19.009Z,22.80
2023-04-10T03:07:58.756Z,23.40
2023-04-10T03:10:28.828Z,23.40
2023-04-10T03:13:04.347Z,25.40
2023-04-10T03:15:34.452Z,24.10
2023-04-10T03:18:09.125Z,22.30
2023-04-10T03:20:40.532Z,23.00
2023-04-10T03:23:10.467Z,22.10
2023-04-10T03:25:42.084Z,24.90
2023-04-10T03:28:11.482Z,23.30
2023-04-10T03:30:43.234Z,22.10
2023-04-10T03:33:12.641Z,25.00
2023-04-10T03:35:41.820Z,25.30
2023-04-10T03:38:15.165Z,23.50
2023-04-10T03:40:44.553Z,24.90
2023-04-10T03:43:25.729Z,23.50
2023-04-10T03:46:15.873Z,23.20
2023-04-10T03:48:45.223Z,25.10
2023-04-10T03:51:14.498Z,25.10
2023-04-10T03:53:43.718Z,22.20
2023-04-10T03:56:21.995Z,23.70
2023-04-10T03:59:04.372Z,24.80
2023-04-10T04:01:40.750Z,22.00
2023-04-10T04:04:17.236Z,23.20
2023-04-10T04:06:49.008Z,24.00
2023-04-10T04:09:18.261Z,21.60
2023-04-10T04:11:50.512Z,20.40
2023-04-10T04:14:38.318Z,20.50
2023-04-10T04:17:09.649Z,30.40
2023-04-10T04:19:40.043Z,22.80
2023-04-10T04:22:26.617Z,22.10
2023-04-10T04:24:56.289Z,21.50
2023-04-10T04:27:29.895Z,22.90
2023-04-10T04:30:03.881Z,20.50
2023-04-10T04:32:33.352Z,22.00
2023-04-10T04:35:02.809Z,22.10
2023-04-10T04:37:37.996Z,21.30
2023-04-10T04:40:10.133Z,21.70
2023-04-10T04:42:40.459Z,22.40
2023-04-10T04:45:12.256Z,21.60
2023-04-10T04:47:42.010Z,21.90
2023-04-10T04:50:12.220Z,24.70
2023-04-10T04:52:42.080Z,22.60
2023-04-10T04:55:12.360Z,22.60
2023-04-10T04:58:10.235Z,23.00
2023-04-10T05:00:40.552Z,22.30
2023-04-10T05:03:10.798Z,21.30
2023-04-10T05:05:57.720Z,21.80
2023-04-10T05:08:27.109Z,25.50
2023-04-10T05:10:56.456Z,21.80
2023-04-10T05:13:28.240Z,23.60
2023-04-10T05:16:00.721Z,23.10
2023-04-10T05:18:30.184Z,25.60
2023-04-10T05:21:21.074Z,22.20
2023-04-10T05:23:50.567Z,23.30
2023-04-10T05:29:22.364Z,23.30
2023-04-10T05:31:53.229Z,24.20
2023-04-10T05:34:23.078Z,24.30
2023-04-10T05:36:52.362Z,26.00
2023-04-10T05:39:21.563Z,26.40
2023-04-10T05:41:51.069Z,25.20
2023-04-10T05:44:20.371Z,23.90
2023-04-10T05:46:49.590Z,22.40
2023-04-10T05:49:18.963Z,22.40
2023-04-10T05:51:49.843Z,24.60
2023-04-10T05:56:56.934Z,22.20
2023-04-10T05:59:26.362Z,23.90
2023-04-10T06:01:56.504Z,25.30
2023-04-10T06:04:26.291Z,23.80
2023-04-10T06:06:56.693Z,25.50
2023-04-10T06:12:21.620Z,26.80
2023-04-10T06:13:39.454Z,25.90
2023-04-10T06:16:09.982Z,22.10
2023-04-10T06:18:39.264Z,26.00
2023-04-10T06:21:09.541Z,22.60
2023-04-10T06:23:38.882Z,25.10
2023-04-10T06:26:08.665Z,23.20
2023-04-10T06:28:38.397Z,22.70
2023-04-10T06:31:11.166Z,23.60
2023-04-10T06:33:43.571Z,22.10
2023-04-10T06:36:36.189Z,24.70
2023-04-10T06:39:09.055Z,23.70
2023-04-10T06:41:38.353Z,24.80
2023-04-10T06:44:07.908Z,24.20
2023-04-10T06:46:37.219Z,21.00
2023-04-10T06:49:10.888Z,25.90
2023-04-10T06:51:48.154Z,22.00
2023-04-10T06:54:17.633Z,24.20
2023-04-10T06:56:46.960Z,23.10
2023-04-10T06:59:31.574Z,21.80
2023-04-10T07:02:01.247Z,23.70
2023-04-10T07:04:30.843Z,25.60
2023-04-10T07:07:00.218Z,23.20
2023-04-10T07:09:30.546Z,23.20
2023-04-10T07:11:59.886Z,22.80
2023-04-10T07:17:48.897Z,24.20
2023-04-10T07:20:18.717Z,23.40
2023-04-10T07:22:48.203Z,24.80
2023-04-10T07:25:18.113Z,23.70
2023-04-10T07:27:47.630Z,23.00
2023-04-10T07:30:18.915Z,22.80
2023-04-10T07:32:50.445Z,21.60
2023-04-10T07:35:26.540Z,22.70
2023-04-10T07:37:57.249Z,23.20
2023-04-10T07:40:26.558Z,20.60
2023-04-10T07:42:55.747Z,22.40
2023-04-10T07:45:25.902Z,21.10
2023-04-10T07:47:55.643Z,21.30
2023-04-10T07:54:07.081Z,21.50
2023-04-10T07:59:54.539Z,18.80
2023-04-10T08:02:31.920Z,20.40
2023-04-10T08:03:33.232Z,20.90
2023-04-10T08:03:49.753Z,21.00
2023-04-10T08:05:10.730Z,19.80
2023-04-10T08:07:40.294Z,20.70
2023-04-10T08:10:12.035Z,20.50
2023-04-10T08:13:17.374Z,18.10
2023-04-10T08:15:55.366Z,19.50
2023-04-10T08:18:25.139Z,20.40
2023-04-10T08:20:54.402Z,17.50
2023-04-10T08:23:35.554Z,17.70
2023-04-10T08:26:20.142Z,16.70
2023-04-10T08:28:55.812Z,18.40
2023-04-10T08:31:41.801Z,17.60
2023-04-10T08:34:11.137Z,18.30
2023-04-10T08:36:42.601Z,17.80
2023-04-10T08:39:12.715Z,19.50
2023-04-10T08:41:51.029Z,17.70
2023-04-10T08:44:20.450Z,19.50
2023-04-10T08:46:50.600Z,19.00
2023-04-10T08:49:28.185Z,20.10
2023-04-10T08:51:59.141Z,20.30
2023-04-10T08:54:34.746Z,18.90
2023-04-10T08:57:21.755Z,20.20
2023-04-10T09:00:23.335Z,17.90
2023-04-10T09:03:45.002Z,20.20
2023-04-10T09:06:51.857Z,16.10
2023-04-10T09:09:11.830Z,18.40
2023-04-10T09:12:01.511Z,17.50
2023-04-10T09:16:21.307Z,17.60
2023-04-10T09:17:38.438Z,16.60
2023-04-10T09:20:31.604Z,19.40
2023-04-10T09:23:22.400Z,16.10
2023-04-10T09:25:55.969Z,16.30
2023-04-10T09:28:25.908Z,16.40
2023-04-10T09:30:55.791Z,16.20
2023-04-10T09:33:27.507Z,16.10
2023-04-10T09:36:00.377Z,16.50
2023-04-10T09:39:07.811Z,15.80
2023-04-10T09:42:04.290Z,14.40
2023-04-10T09:44:39.887Z,15.50
2023-04-10T09:47:21.046Z,15.50
2023-04-10T09:49:52.367Z,14.80
2023-04-10T09:52:24.272Z,14.00
2023-04-10T09:54:54.336Z,14.00
2023-04-10T09:57:28.400Z,13.10
2023-04-10T10:00:00.051Z,13.00
2023-04-10T10:02:33.750Z,12.10
2023-04-10T10:05:04.736Z,13.20
2023-04-10T10:07:42.985Z,12.00
2023-04-10T10:10:13.694Z,11.80
2023-04-10T10:12:52.036Z,14.10
2023-04-10T10:15:29.113Z,12.00
2023-04-10T10:18:11.103Z,11.70
2023-04-10T10:20:46.674Z,12.40
2023-04-10T10:23:17.803Z,13.20
2023-04-10T10:25:51.619Z,12.10
2023-04-10T10:28:22.625Z,12.30
2023-04-10T10:30:52.968Z,12.70
2023-04-10T10:33:23.082Z,11.70
2023-04-10T10:35:52.996Z,11.60
2023-04-10T10:38:22.928Z,11.00
2023-04-10T10:41:02.259Z,11.10
2023-04-10T10:43:42.680Z,13.70
2023-04-10T10:46:16.979Z,11.60
2023-04-10T10:48:57.937Z,12.10
2023-04-10T10:51:44.138Z,12.90
2023-04-10T10:54:28.908Z,11.60
2023-04-10T10:56:58.507Z,13.40
2023-04-10T10:59:57.635Z,12.30
2023-04-10T11:02:27.289Z,11.30
2023-04-10T11:04:56.627Z,11.00
2023-04-10T11:08:03.186Z,13.00
2023-04-10T11:11:01.811Z,12.70
2023-04-10T11:13:31.699Z,10.40
2023-04-10T11:16:16.494Z,11.50
2023-04-10T11:19:13.118Z,10.70
2023-04-10T11:22:08.764Z,10.60
2023-04-10T11:24:56.965Z,11.00
2023-04-10T11:27:46.205Z,10.30
2023-04-10T11:30:35.912Z,9.40
2023-04-10T11:33:06.296Z,11.10
2023-04-10T11:35:35.706Z,12.00
2023-04-10T11:38:17.410Z,9.60
2023-04-10T11:40:57.708Z,8.90
2023-04-10T11:43:27.285Z,9.40
2023-04-10T11:46:07.555Z,9.50
2023-04-10T11:48:38.109Z,11.20
2023-04-10T11:51:15.176Z,8.90
2023-04-10T11:53:44.787Z,9.60
2023-04-10T11:56:19.957Z,9.60
2023-04-10T11:58:53.489Z,11.00
2023-04-10T12:01:23.800Z,10.60
2023-04-10T12:03:53.452Z,8.90
2023-04-10T12:06:23.191Z,10.30
2023-04-10T12:08:53.212Z,9.40
2023-04-10T12:11:24.718Z,11.70
2023-04-10T12:13:55.112Z,9.70
2023-04-10T12:16:26.081Z,9.90
2023-04-10T12:18:55.948Z,9.10
2023-04-10T12:21:26.921Z,10.10
2023-04-10T12:23:56.312Z,10.50
2023-04-10T12:26:25.484Z,9.60
2023-04-10T12:28:56.884Z,9.10
2023-04-10T12:31:30.764Z,9.20
2023-04-10T12:34:01.756Z,9.10
2023-04-10T12:36:33.741Z,10.50
2023-04-10T12:39:04.315Z,9.60
2023-04-10T12:41:59.019Z,9.60
2023-04-10T12:44:34.188Z,9.90
2023-04-10T12:47:15.504Z,9.40
2023-04-10T12:50:04.035Z,10.80
2023-04-10T12:52:33.532Z,9.90
2023-04-10T12:55:14.187Z,9.60
2023-04-10T12:57:45.365Z,9.60
2023-04-10T13:00:17.467Z,9.80
2023-04-10T13:02:48.508Z,12.80
2023-04-10T13:05:37.149Z,10.00
2023-04-10T13:08:06.537Z,8.90
2023-04-10T13:10:44.406Z,9.50
2023-04-10T13:13:29.287Z,9.10
2023-04-10T13:15:58.890Z,9.60
2023-04-10T13:18:28.290Z,9.00
2023-04-10T13:20:57.736Z,16.10
2023-04-10T13:23:37.173Z,8.90
2023-04-10T13:26:06.996Z,9.70
2023-04-10T13:28:36.184Z,9.00
2023-04-10T13:31:05.970Z,9.50
2023-04-10T13:33:35.569Z,9.50
2023-04-10T13:36:06.006Z,9.30
2023-04-10T13:38:49.337Z,10.90
2023-04-10T13:41:19.939Z,10.50
2023-04-10T13:43:49.807Z,9.60
2023-04-10T13:46:19.606Z,9.20
2023-04-10T13:48:48.904Z,10.60
2023-04-10T13:51:19.740Z,8.70
2023-04-10T13:53:49.133Z,9.20
2023-04-10T13:56:18.601Z,8.90
2023-04-10T13:58:48.782Z,9.40
2023-04-10T14:01:29.247Z,8.80
2023-04-10T14:03:59.288Z,8.80
2023-04-10T14:06:38.071Z,8.90
2023-04-10T14:09:07.446Z,10.70
2023-04-10T14:11:36.775Z,9.60
2023-04-10T14:14:26.023Z,9.40
2023-04-10T14:17:06.998Z,8.80
2023-04-10T14:19:51.939Z,9.00
2023-04-10T14:22:23.171Z,8.90
2023-04-10T14:25:01.725Z,9.60
2023-04-10T14:27:41.520Z,8.60
2023-04-10T14:30:11.542Z,8.80
2023-04-10T14:32:58.398Z,9.20
2023-04-10T14:35:27.583Z,8.90
2023-04-10T14:37:56.674Z,8.30
2023-04-10T14:40:27.390Z,8.90
2023-04-10T14:42:56.502Z,8.90
2023-04-10T14:45:27.521Z,7.90
2023-04-10T14:47:57.102Z,8.60
2023-04-10T14:50:26.716Z,8.50
2023-04-10T14:52:59.186Z,9.30
2023-04-10T14:55:29.981Z,8.80
2023-04-10T14:57:59.259Z,8.00
2023-04-10T15:00:29.326Z,11.60
2023-04-10T15:02:58.926Z,9.50
2023-04-10T15:05:28.701Z,9.90
2023-04-10T15:07:58.031Z,9.50
2023-04-10T15:10:30.133Z,8.20
2023-04-10T15:12:59.456Z,8.80
2023-04-10T15:15:28.774Z,8.40
2023-04-10T15:17:58.255Z,9.90
2023-04-10T15:20:28.071Z,8.60
2023-04-10T15:22:58.402Z,9.30
2023-04-10T15:25:28.173Z,8.70
2023-04-10T15:27:59.317Z,8.60
2023-04-10T15:30:30.461Z,9.40
2023-04-10T15:33:13.166Z,8.70
2023-04-10T15:35:42.652Z,9.40
2023-04-10T15:38:12.852Z,9.00
2023-04-10T15:40:42.097Z,10.10
2023-04-10T15:43:11.214Z,8.60
2023-04-10T15:45:41.016Z,8.70
2023-04-10T15:48:10.644Z,8.50
2023-04-10T15:50:40.230Z,8.40
2023-04-10T15:53:11.003Z,8.10
2023-04-10T15:55:41.659Z,8.10
2023-04-10T15:58:10.823Z,8.80
2023-04-10T16:00:39.824Z,8.00
2023-04-10T16:03:09.319Z,8.70
2023-04-10T16:05:38.650Z,9.90
2023-04-10T16:08:07.729Z,10.60
2023-04-10T16:10:36.993Z,8.30
2023-04-10T16:13:06.222Z,9.60
2023-04-10T16:15:36.786Z,8.40
2023-04-10T16:18:07.213Z,11.50
2023-04-10T16:20:36.529Z,11.80
2023-04-10T16:23:05.846Z,8.90
2023-04-10T16:25:35.128Z,9.40
2023-04-10T16:28:07.241Z,10.00
2023-04-10T16:30:36.417Z,10.20
2023-04-10T16:33:06.208Z,10.20
2023-04-10T16:35:35.468Z,9.50
2023-04-10T16:38:04.752Z,11.40
2023-04-10T16:40:41.309Z,9.90
2023-04-10T16:43:11.530Z,11.00
2023-04-10T16:45:42.195Z,11.00
2023-04-10T16:48:11.538Z,11.40
2023-04-10T16:50:40.780Z,10.80
2023-04-10T16:53:09.872Z,12.20
2023-04-10T16:56:06.100Z,11.30
2023-04-10T16:59:04.385Z,11.30
2023-04-10T17:01:38.914Z,13.60
2023-04-10T17:04:08.729Z,13.20
2023-04-10T17:06:38.056Z,12.70
2023-04-10T17:09:07.099Z,15.40
2023-04-10T17:11:36.476Z,13.30
2023-04-10T17:14:06.774Z,13.20
2023-04-10T17:16:36.145Z,13.10
2023-04-10T17:19:05.573Z,13.40
2023-04-10T17:21:37.400Z,14.70
2023-04-10T17:24:07.429Z,11.90
2023-04-10T17:26:42.754Z,13.60
2023-04-10T17:29:12.471Z,12.70
2023-04-10T17:31:42.104Z,13.10
2023-04-10T17:34:14.135Z,12.80
2023-04-10T17:36:43.442Z,13.30
2023-04-10T17:39:12.661Z,14.10
2023-04-10T17:41:42.047Z,13.80
2023-04-10T17:44:11.530Z,13.10
2023-04-10T17:46:40.635Z,12.50
2023-04-10T17:49:14.704Z,14.70
2023-04-10T17:51:46.187Z,14.00
2023-04-10T17:54:15.605Z,12.40
2023-04-10T17:56:45.015Z,15.00
2023-04-10T17:59:14.261Z,13.40
2023-04-10T18:01:43.669Z,13.10
2023-04-10T18:04:13.002Z,13.70
2023-04-10T18:06:42.306Z,13.90
2023-04-10T18:09:11.738Z,15.60
2023-04-10T18:11:41.066Z,15.20
2023-04-10T18:14:10.526Z,15.70
2023-04-10T18:16:39.933Z,13.90
2023-04-10T18:19:09.501Z,15.00
2023-04-10T18:21:41.302Z,14.80
2023-04-10T18:24:10.807Z,17.10
2023-04-10T18:26:40.677Z,16.40
2023-04-10T18:29:15.943Z,16.10
2023-04-10T18:31:45.621Z,15.60
2023-04-10T18:34:14.837Z,15.60
2023-04-10T18:36:45.221Z,16.50
2023-04-10T18:39:14.608Z,15.40
2023-04-10T18:41:43.788Z,15.70
2023-04-10T18:44:13.047Z,15.00
2023-04-10T18:46:46.160Z,18.20
2023-04-10T18:49:18.241Z,16.40
2023-04-10T18:51:50.509Z,15.80
2023-04-10T18:54:19.553Z,18.50
2023-04-10T18:56:49.009Z,16.40
2023-04-10T18:59:18.224Z,16.70
2023-04-10T19:01:48.009Z,16.10
2023-04-10T19:04:24.221Z,16.00
2023-04-10T19:06:53.603Z,15.90
2023-04-10T19:09:22.747Z,16.20
2023-04-10T19:11:53.505Z,18.40
2023-04-10T19:14:22.803Z,17.10
2023-04-10T19:16:52.063Z,17.50
2023-04-10T19:19:21.410Z,16.50
2023-04-10T19:21:52.968Z,16.00
2023-04-10T19:24:22.565Z,18.20
2023-04-10T19:26:54.096Z,15.80
2023-04-10T19:29:25.348Z,16.70
2023-04-10T19:31:56.455Z,17.30
2023-04-10T19:34:25.879Z,17.30
2023-04-10T19:36:55.369Z,19.40
2023-04-10T19:39:24.554Z,18.50
2023-04-10T19:41:55.759Z,17.60
2023-04-10T19:44:25.417Z,18.50
2023-04-10T19:46:54.629Z,18.10
2023-04-10T19:49:24.081Z,20.40
2023-04-10T19:51:53.707Z,17.00
2023-04-10T19:54:23.183Z,18.40
2023-04-10T19:56:52.425Z,16.30
2023-04-10T19:59:22.342Z,16.50
2023-04-10T20:01:51.627Z,16.80
2023-04-10T20:04:20.863Z,16.00
2023-04-10T20:06:50.394Z,16.60
2023-04-10T20:09:19.535Z,17.10
2023-04-10T20:11:52.023Z,16.70
2023-04-10T20:14:21.334Z,16.40
2023-04-10T20:16:50.920Z,14.90
2023-04-10T20:19:23.396Z,15.30
2023-04-10T20:22:08.884Z,18.30
2023-04-10T20:24:38.825Z,16.20
2023-04-10T20:27:11.875Z,16.80
2023-04-10T20:29:41.634Z,15.30
2023-04-10T20:32:11.116Z,17.00
2023-04-10T20:34:45.743Z,17.70
2023-04-10T20:37:21.224Z,18.10
2023-04-10T20:39:51.549Z,16.20
2023-04-10T20:42:20.796Z,17.90
2023-04-10T20:44:55.310Z,17.20
2023-04-10T20:47:24.950Z,18.00
2023-04-10T20:49:54.317Z,18.00
2023-04-10T20:52:24.062Z,18.40
2023-04-10T20:54:53.435Z,18.00
2023-04-10T20:57:23.171Z,17.10
2023-04-10T20:59:56.775Z,18.10
2023-04-10T21:02:26.072Z,20.20
2023-04-10T21:04:55.538Z,17.90
2023-04-10T21:07:24.450Z,18.10
2023-04-10T21:09:53.794Z,17.40
2023-04-10T21:12:23.930Z,21.00
2023-04-10T21:14:53.165Z,17.80
2023-04-10T21:17:23.324Z,18.00
2023-04-10T21:19:53.819Z,17.90
2023-04-10T21:22:22.984Z,17.40
2023-04-10T21:24:52.346Z,18.80
2023-04-10T21:27:21.600Z,17.40
2023-04-10T21:29:50.551Z,18.40
2023-04-10T21:32:23.242Z,19.80
2023-04-10T21:34:52.414Z,18.30
2023-04-10T21:37:21.677Z,18.60
2023-04-10T21:39:52.020Z,18.50
2023-04-10T21:42:21.151Z,20.40
2023-04-10T21:44:50.210Z,18.80
2023-04-10T21:47:19.528Z,22.40
2023-04-10T21:49:48.533Z,22.30
2023-04-10T21:52:17.652Z,24.40
2023-04-10T21:54:47.005Z,20.00
2023-04-10T21:57:16.144Z,23.50
2023-04-10T21:59:45.475Z,19.50
2023-04-10T22:02:15.179Z,19.90
2023-04-10T22:04:54.674Z,21.90
2023-04-10T22:07:39.821Z,19.00
2023-04-10T22:10:10.934Z,19.60
2023-04-10T22:12:41.381Z,19.00
2023-04-10T22:15:21.116Z,19.10
2023-04-10T22:17:50.608Z,19.00
2023-04-10T22:20:19.709Z,20.20
2023-04-10T22:23:19.682Z,18.10
2023-04-10T22:25:47.189Z,18.50
2023-04-10T22:28:16.948Z,20.20
2023-04-10T22:30:54.985Z,21.00
2023-04-10T22:33:24.357Z,19.50
2023-04-10T22:35:53.700Z,18.70
2023-04-10T22:38:22.782Z,19.70
2023-04-10T22:40:55.425Z,21.50
2023-04-10T22:43:24.939Z,21.50
2023-04-10T22:45:54.802Z,19.50
2023-04-10T22:48:24.472Z,21.70
2023-04-10T22:50:53.815Z,17.90
2023-04-10T22:53:23.158Z,20.80
2023-04-10T22:55:52.320Z,20.70
2023-04-10T22:58:21.391Z,18.80
2023-04-10T23:00:50.644Z,21.30
2023-04-10T23:03:19.711Z,21.40
2023-04-10T23:05:48.948Z,21.10
2023-04-10T23:08:18.349Z,20.50
2023-04-10T23:10:47.773Z,19.40
2023-04-10T23:13:17.396Z,20.00
2023-04-10T23:15:50.315Z,20.00
2023-04-10T23:18:19.966Z,21.00
2023-04-10T23:20:49.982Z,19.70
2023-04-10T23:23:20.718Z,21.80
2023-04-10T23:25:58.071Z,21.20
2023-04-10T23:28:28.468Z,19.60
2023-04-10T23:30:57.845Z,20.40
2023-04-10T23:33:27.623Z,21.70
2023-04-10T23:35:57.027Z,24.30
2023-04-10T23:38:26.315Z,23.10
2023-04-10T23:40:56.992Z,22.10
2023-04-10T23:43:27.155Z,22.00
2023-04-10T23:45:56.338Z,23.50
2023-04-10T23:48:25.761Z,23.60
2023-04-10T23:51:04.596Z,23.80
2023-04-10T23:53:34.042Z,26.00
2023-04-10T23:56:03.330Z,22.80
2023-04-10T23:58:32.793Z,24.20
